SEKCJA WYDRUKÓW, pokaż »

METAR EPBY 070000Z 27008KT 7000 -RA OVC002 02/02 Q1009=

METAR EPGD 070000Z 26004KT 9000 OVC004 01/01 Q1007 =

METAR EPKK 070000Z 24009KT 9999 SCT008 BKN017 02/01 Q1011 =

METAR EPKT 070000Z 24008KT 4300 -SN BR OVC003 00/00 Q1011 =

METAR EPLB 070000Z 22006KT 6000 BKN003 OVC005 01/01 Q1009 =

METAR EPLL 070000Z 25007KT 3900 -RA BR OVC003 01/01 Q1009 =

METAR EPML 070000Z NIL=

METAR EPMO 070000Z 19003KT 0800 R08/1000D -SN FG OVC005 00/00 Q1008 =

METAR EPPO 070000Z 27009KT 4600 BR OVC002 02/02 Q1010 =

METAR EPRA 070000Z NIL=

METAR EPRZ 070000Z 21010KT 9999 OVC008 01/01 Q1011 =

METAR EPSC 070000Z 26007KT 9999 SCT004 BKN007 02/01 Q1011 =

METAR EPSY 070000Z VRB01KT 3000 -SN BR OVC002 M00/M00 Q1008 RESN=

METAR EPWA 070000Z 24003KT 4400 -RASN BR BKN003 01/00 Q1008 NOSIG=

METAR EPWR 070000Z 29010KT 9999 -RA BKN007 BKN009 02/01 Q1012 =

METAR EPZG 070000Z NIL=
 METAR EPLB
Lokalizacja:EPLB Lublin
Czas:00:00 UTC
Średni kierunek wiatru:220 °
Średnia prędkość wiatru:6 węzłów
Widzialność:6 kilometrów
Pierwsza warstwa chmur:5/8 do 7/8, wysokość podstawy 300 FT
Druga warstwa chmur:8/8, wysokość podstawy 500 FT
Temperatura powietrza:1 °C
Temperatura punktu rosy:1 °C
Ciśnienie QNH:1009 hPa